KLBL/LBL METAR and TAF weather

Enter ICAO airport designator
Station Type Date Time Source
KLBL METAR 2020/07/05 16:56 UTC NOAA

KLBL 051656Z AUTO 05005KT 10SM BKN070 27/18 A3005 RMK AO2 SLP140 T02720183


Station Type Date Time Source
KLBL Decoded METAR 2020/07/05 16:56 UTC NOAA

Liberal, Liberal Municipal Airport, KS, United States (KLBL) 37-03N 100-58W
Jul 05, 2020 - 12:56 PM EDT / 2020.07.05 1656 UTC
Wind: from the NE (050 degrees) at 6 MPH (5 KT):0
Visibility: 10 mile(s):0
Sky conditions: mostly cloudy
Temperature: 81.0 F (27.2 C)
Dew Point: 64.9 F (18.3 C)
Relative Humidity: 58%
Pressure (altimeter): 30.05 in. Hg (1017 hPa)
ob: KLBL 051656Z AUTO 05005KT 10SM BKN070 27/18 A3005 RMK AO2 SLP140 T02720183
cycle: 17

Station Type Date Time Source
KLBL TAF 2020/07/05 18:21 UTC NOAA

TAF KLBL 051720Z 0518/0618 09007KT P6SM SCT150
FM052130 10008KT P6SM VCTS SCT090CB
FM060000 05009KT P6SM VCTS BKN180CB
FM060200 03006KT P6SM SCT200

Example: see airport list